sensor_id;sensor_type;location;lat;lon;timestamp;P1;durP1;ratioP1;P2;durP2;ratioP2
18066;SDS011;9158;51.528;7.192;2023-07-28T00:00:01;8.10;;;7.28;;
18066;SDS011;9158;51.528;7.192;2023-07-28T00:00:41;7.50;;;6.90;;
18066;SDS011;9158;51.528;7.192;2023-07-28T00:01:13;9.32;;;8.00;;
18066;SDS011;9158;51.528;7.192;2023-07-28T00:01:44;8.73;;;7.93;;
18066;SDS011;9158;51.528;7.192;2023-07-28T00:02:15;10.73;;;7.90;;
18066;SDS011;9158;51.528;7.192;2023-07-28T00:02:47;7.68;;;7.07;;
18066;SDS011;9158;51.528;7.192;2023-07-28T00:03:17;8.23;;;7.47;;
18066;SDS011;9158;51.528;7.192;2023-07-28T00:03:48;7.47;;;6.87;;
18066;SDS011;9158;51.528;7.192;2023-07-28T00:04:19;8.00;;;7.03;;
18066;SDS011;9158;51.528;7.192;2023-07-28T00:04:51;8.45;;;7.55;;
18066;SDS011;9158;51.528;7.192;2023-07-28T00:05:22;8.23;;;7.43;;
18066;SDS011;9158;51.528;7.192;2023-07-28T00:05:53;9.38;;;8.25;;
18066;SDS011;9158;51.528;7.192;2023-07-28T00:06:25;9.00;;;8.10;;
18066;SDS011;9158;51.528;7.192;2023-07-28T00:06:57;10.15;;;8.13;;
18066;SDS011;9158;51.528;7.192;2023-07-28T00:07:28;8.77;;;7.97;;
18066;SDS011;9158;51.528;7.192;2023-07-28T00:08:00;7.20;;;6.38;;
18066;SDS011;9158;51.528;7.192;2023-07-28T00:08:31;9.00;;;7.80;;
18066;SDS011;9158;51.528;7.192;2023-07-28T00:09:03;8.35;;;7.65;;
18066;SDS011;9158;51.528;7.192;2023-07-28T00:09:34;8.25;;;7.45;;
18066;SDS011;9158;51.528;7.192;2023-07-28T00:10:05;8.57;;;7.57;;
18066;SDS011;9158;51.528;7.192;2023-07-28T00:10:39;8.73;;;7.88;;
18066;SDS011;9158;51.528;7.192;2023-07-28T00:11:13;8.95;;;7.85;;
18066;SDS011;9158;51.528;7.192;2023-07-28T00:11:44;7.95;;;7.25;;
18066;SDS011;9158;51.528;7.192;2023-07-28T00:12:15;8.50;;;7.30;;
18066;SDS011;9158;51.528;7.192;2023-07-28T00:12:46;8.10;;;7.40;;
18066;SDS011;9158;51.528;7.192;2023-07-28T00:13:18;9.93;;;7.50;;
18066;SDS011;9158;51.528;7.192;2023-07-28T00:13:49;8.63;;;7.83;;
18066;SDS011;9158;51.528;7.192;2023-07-28T00:14:20;8.18;;;7.38;;
18066;SDS011;9158;51.528;7.192;2023-07-28T00:14:51;11.10;;;7.32;;
18066;SDS011;9158;51.528;7.192;2023-07-28T00:15:23;8.55;;;7.75;;
18066;SDS011;9158;51.528;7.192;2023-07-28T00:15:54;7.80;;;7.20;;
18066;SDS011;9158;51.528;7.192;2023-07-28T00:16:25;8.90;;;8.00;;
18066;SDS011;9158;51.528;7.192;2023-07-28T00:16:57;8.35;;;7.55;;
18066;SDS011;9158;51.528;7.192;2023-07-28T00:17:28;8.45;;;7.55;;
18066;SDS011;9158;51.528;7.192;2023-07-28T00:17:59;9.13;;;8.23;;
18066;SDS011;9158;51.528;7.192;2023-07-28T00:18:32;8.35;;;7.55;;
18066;SDS011;9158;51.528;7.192;2023-07-28T00:19:03;8.80;;;7.90;;
18066;SDS011;9158;51.528;7.192;2023-07-28T00:19:34;9.17;;;8.23;;
18066;SDS011;9158;51.528;7.192;2023-07-28T00:20:06;8.47;;;7.70;;
18066;SDS011;9158;51.528;7.192;2023-07-28T00:20:38;9.48;;;8.57;;
18066;SDS011;9158;51.528;7.192;2023-07-28T00:21:10;8.43;;;7.72;;
18066;SDS011;9158;51.528;7.192;2023-07-28T00:21:42;9.00;;;8.13;;
18066;SDS011;9158;51.528;7.192;2023-07-28T00:22:13;8.20;;;7.50;;
18066;SDS011;9158;51.528;7.192;2023-07-28T00:22:44;8.43;;;7.63;;
18066;SDS011;9158;51.528;7.192;2023-07-28T00:23:16;9.07;;;8.30;;
18066;SDS011;9158;51.528;7.192;2023-07-28T00:23:47;8.00;;;7.30;;
18066;SDS011;9158;51.528;7.192;2023-07-28T00:24:18;9.20;;;8.40;;
18066;SDS011;9158;51.528;7.192;2023-07-28T00:24:50;8.73;;;7.75;;
18066;SDS011;9158;51.528;7.192;2023-07-28T00:25:21;7.88;;;7.13;;
18066;SDS011;9158;51.528;7.192;2023-07-28T00:25:52;9.13;;;8.32;;
18066;SDS011;9158;51.528;7.192;2023-07-28T00:26:23;10.60;;;8.63;;
18066;SDS011;9158;51.528;7.192;2023-07-28T00:26:55;9.18;;;8.38;;
18066;SDS011;9158;51.528;7.192;2023-07-28T00:27:26;7.93;;;7.20;;
18066;SDS011;9158;51.528;7.192;2023-07-28T00:27:57;8.60;;;7.80;;
18066;SDS011;9158;51.528;7.192;2023-07-28T00:28:28;9.53;;;8.60;;
18066;SDS011;9158;51.528;7.192;2023-07-28T00:29:00;8.98;;;8.13;;
18066;SDS011;9158;51.528;7.192;2023-07-28T00:29:31;10.07;;;9.10;;
18066;SDS011;9158;51.528;7.192;2023-07-28T00:30:02;10.43;;;8.70;;
18066;SDS011;9158;51.528;7.192;2023-07-28T00:30:34;8.02;;;7.43;;
18066;SDS011;9158;51.528;7.192;2023-07-28T00:31:06;8.95;;;8.05;;
18066;SDS011;9158;51.528;7.192;2023-07-28T00:31:37;9.47;;;8.47;;
18066;SDS011;9158;51.528;7.192;2023-07-28T00:32:08;9.23;;;8.03;;
18066;SDS011;9158;51.528;7.192;2023-07-28T00:32:40;9.75;;;8.75;;
18066;SDS011;9158;51.528;7.192;2023-07-28T00:33:13;8.38;;;7.70;;
18066;SDS011;9158;51.528;7.192;2023-07-28T00:33:44;9.03;;;8.23;;
18066;SDS011;9158;51.528;7.192;2023-07-28T00:34:15;8.93;;;7.82;;
18066;SDS011;9158;51.528;7.192;2023-07-28T00:34:48;8.23;;;7.53;;
18066;SDS011;9158;51.528;7.192;2023-07-28T00:35:19;7.97;;;7.27;;
18066;SDS011;9158;51.528;7.192;2023-07-28T00:35:50;8.73;;;7.93;;
18066;SDS011;9158;51.528;7.192;2023-07-28T00:36:22;8.60;;;7.90;;
18066;SDS011;9158;51.528;7.192;2023-07-28T00:36:55;8.55;;;7.65;;
18066;SDS011;9158;51.528;7.192;2023-07-28T00:37:25;10.90;;;8.25;;
18066;SDS011;9158;51.528;7.192;2023-07-28T00:37:56;9.43;;;8.73;;
18066;SDS011;9158;51.528;7.192;2023-07-28T00:38:28;9.00;;;8.30;;
18066;SDS011;9158;51.528;7.192;2023-07-28T00:39:00;9.23;;;8.50;;
18066;SDS011;9158;51.528;7.192;2023-07-28T00:39:31;8.88;;;7.85;;
18066;SDS011;9158;51.528;7.192;2023-07-28T00:40:04;8.82;;;8.02;;
18066;SDS011;9158;51.528;7.192;2023-07-28T00:40:37;8.90;;;8.00;;
18066;SDS011;9158;51.528;7.192;2023-07-28T00:41:08;9.95;;;9.15;;
18066;SDS011;9158;51.528;7.192;2023-07-28T00:41:39;10.93;;;8.70;;
18066;SDS011;9158;51.528;7.192;2023-07-28T00:42:10;9.77;;;8.88;;
18066;SDS011;9158;51.528;7.192;2023-07-28T00:42:42;8.98;;;8.27;;
18066;SDS011;9158;51.528;7.192;2023-07-28T00:43:13;8.50;;;7.80;;
18066;SDS011;9158;51.528;7.192;2023-07-28T00:43:44;10.10;;;9.18;;
18066;SDS011;9158;51.528;7.192;2023-07-28T00:44:14;8.87;;;8.07;;
18066;SDS011;9158;51.528;7.192;2023-07-28T00:44:47;9.52;;;8.73;;
18066;SDS011;9158;51.528;7.192;2023-07-28T00:45:19;9.55;;;8.57;;
18066;SDS011;9158;51.528;7.192;2023-07-28T00:45:50;8.68;;;8.00;;
18066;SDS011;9158;51.528;7.192;2023-07-28T00:46:23;8.85;;;8.02;;
18066;SDS011;9158;51.528;7.192;2023-07-28T00:46:54;9.18;;;7.70;;
18066;SDS011;9158;51.528;7.192;2023-07-28T00:47:26;8.75;;;7.60;;
18066;SDS011;9158;51.528;7.192;2023-07-28T00:47:56;8.35;;;7.45;;
18066;SDS011;9158;51.528;7.192;2023-07-28T00:48:29;8.15;;;7.45;;
18066;SDS011;9158;51.528;7.192;2023-07-28T00:49:00;8.25;;;7.53;;
18066;SDS011;9158;51.528;7.192;2023-07-28T00:49:31;8.48;;;7.68;;
18066;SDS011;9158;51.528;7.192;2023-07-28T00:50:04;9.18;;;8.38;;
18066;SDS011;9158;51.528;7.192;2023-07-28T00:50:35;9.30;;;8.40;;
18066;SDS011;9158;51.528;7.192;2023-07-28T00:51:07;8.95;;;7.70;;
18066;SDS011;9158;51.528;7.192;2023-07-28T00:51:38;9.77;;;8.93;;
18066;SDS011;9158;51.528;7.192;2023-07-28T00:52:12;8.88;;;8.07;;
18066;SDS011;9158;51.528;7.192;2023-07-28T00:52:43;9.18;;;8.40;;
18066;SDS011;9158;51.528;7.192;2023-07-28T00:53:14;8.43;;;7.68;;
18066;SDS011;9158;51.528;7.192;2023-07-28T00:53:46;8.73;;;8.02;;
18066;SDS011;9158;51.528;7.192;2023-07-28T00:54:18;9.15;;;8.43;;
18066;SDS011;9158;51.528;7.192;2023-07-28T00:54:49;9.20;;;8.40;;
18066;SDS011;9158;51.528;7.192;2023-07-28T00:55:20;8.90;;;8.20;;
18066;SDS011;9158;51.528;7.192;2023-07-28T00:55:53;9.35;;;7.85;;
18066;SDS011;9158;51.528;7.192;2023-07-28T00:56:24;9.03;;;8.13;;
18066;SDS011;9158;51.528;7.192;2023-07-28T00:56:55;8.55;;;7.72;;
18066;SDS011;9158;51.528;7.192;2023-07-28T00:57:27;8.98;;;8.10;;
18066;SDS011;9158;51.528;7.192;2023-07-28T00:57:59;8.70;;;8.00;;
18066;SDS011;9158;51.528;7.192;2023-07-28T00:58:30;9.20;;;8.30;;
18066;SDS011;9158;51.528;7.192;2023-07-28T00:59:02;9.60;;;8.70;;
18066;SDS011;9158;51.528;7.192;2023-07-28T00:59:33;11.98;;;7.82;;
18066;SDS011;9158;51.528;7.192;2023-07-28T01:00:05;10.35;;;9.43;;
18066;SDS011;9158;51.528;7.192;2023-07-28T01:00:37;9.80;;;8.90;;
18066;SDS011;9158;51.528;7.192;2023-07-28T01:01:08;11.38;;;9.43;;
18066;SDS011;9158;51.528;7.192;2023-07-28T01:01:39;8.90;;;8.10;;
18066;SDS011;9158;51.528;7.192;2023-07-28T01:02:11;9.60;;;8.60;;
18066;SDS011;9158;51.528;7.192;2023-07-28T01:02:42;8.45;;;7.72;;
18066;SDS011;9158;51.528;7.192;2023-07-28T01:03:14;9.48;;;8.48;;
18066;SDS011;9158;51.528;7.192;2023-07-28T01:03:46;9.45;;;7.82;;
18066;SDS011;9158;51.528;7.192;2023-07-28T01:04:18;9.65;;;8.75;;
18066;SDS011;9158;51.528;7.192;2023-07-28T01:04:49;8.73;;;8.02;;
18066;SDS011;9158;51.528;7.192;2023-07-28T01:05:21;9.00;;;8.10;;
18066;SDS011;9158;51.528;7.192;2023-07-28T01:05:58;8.93;;;8.02;;
18066;SDS011;9158;51.528;7.192;2023-07-28T01:06:37;9.07;;;8.18;;
18066;SDS011;9158;51.528;7.192;2023-07-28T01:07:17;9.55;;;8.65;;
18066;SDS011;9158;51.528;7.192;2023-07-28T01:07:58;7.93;;;7.22;;
18066;SDS011;9158;51.528;7.192;2023-07-28T01:08:34;9.10;;;8.27;;
18066;SDS011;9158;51.528;7.192;2023-07-28T01:09:13;8.80;;;8.10;;
18066;SDS011;9158;51.528;7.192;2023-07-28T01:09:50;9.65;;;8.60;;
18066;SDS011;9158;51.528;7.192;2023-07-28T01:10:35;8.00;;;7.20;;
18066;SDS011;9158;51.528;7.192;2023-07-28T01:11:08;9.10;;;8.40;;
18066;SDS011;9158;51.528;7.192;2023-07-28T01:11:52;9.60;;;8.80;;
18066;SDS011;9158;51.528;7.192;2023-07-28T01:12:25;8.77;;;8.05;;
18066;SDS011;9158;51.528;7.192;2023-07-28T01:12:57;9.38;;;8.57;;
18066;SDS011;9158;51.528;7.192;2023-07-28T01:13:28;8.48;;;7.78;;
18066;SDS011;9158;51.528;7.192;2023-07-28T01:13:59;9.25;;;8.45;;
18066;SDS011;9158;51.528;7.192;2023-07-28T01:14:30;10.70;;;8.60;;
18066;SDS011;9158;51.528;7.192;2023-07-28T01:15:02;9.15;;;8.35;;
18066;SDS011;9158;51.528;7.192;2023-07-28T01:15:34;8.60;;;7.80;;
18066;SDS011;9158;51.528;7.192;2023-07-28T01:16:05;8.70;;;7.90;;
18066;SDS011;9158;51.528;7.192;2023-07-28T01:16:37;9.07;;;8.18;;
18066;SDS011;9158;51.528;7.192;2023-07-28T01:17:08;9.23;;;7.70;;
18066;SDS011;9158;51.528;7.192;2023-07-28T01:17:40;9.25;;;7.80;;
18066;SDS011;9158;51.528;7.192;2023-07-28T01:18:11;8.73;;;7.78;;
18066;SDS011;9158;51.528;7.192;2023-07-28T01:18:42;9.00;;;8.20;;
18066;SDS011;9158;51.528;7.192;2023-07-28T01:19:14;8.40;;;7.70;;
18066;SDS011;9158;51.528;7.192;2023-07-28T01:19:48;8.70;;;7.80;;
18066;SDS011;9158;51.528;7.192;2023-07-28T01:20:19;9.20;;;8.05;;
18066;SDS011;9158;51.528;7.192;2023-07-28T01:20:54;10.27;;;7.65;;
18066;SDS011;9158;51.528;7.192;2023-07-28T01:21:30;9.65;;;8.35;;
18066;SDS011;9158;51.528;7.192;2023-07-28T01:22:07;8.70;;;7.85;;
18066;SDS011;9158;51.528;7.192;2023-07-28T01:22:57;9.15;;;7.75;;
18066;SDS011;9158;51.528;7.192;2023-07-28T01:23:41;7.35;;;6.53;;
18066;SDS011;9158;51.528;7.192;2023-07-28T01:24:20;7.45;;;6.68;;
18066;SDS011;9158;51.528;7.192;2023-07-28T01:25:01;7.88;;;7.10;;
18066;SDS011;9158;51.528;7.192;2023-07-28T01:25:50;7.68;;;6.97;;
18066;SDS011;9158;51.528;7.192;2023-07-28T01:26:33;10.85;;;7.10;;
18066;SDS011;9158;51.528;7.192;2023-07-28T01:27:05;7.65;;;6.93;;
18066;SDS011;9158;51.528;7.192;2023-07-28T01:27:38;7.65;;;6.90;;
18066;SDS011;9158;51.528;7.192;2023-07-28T01:28:12;6.97;;;6.38;;
18066;SDS011;9158;51.528;7.192;2023-07-28T01:28:43;8.43;;;7.45;;
18066;SDS011;9158;51.528;7.192;2023-07-28T01:29:16;7.53;;;6.72;;
18066;SDS011;9158;51.528;7.192;2023-07-28T01:29:49;8.07;;;6.80;;
18066;SDS011;9158;51.528;7.192;2023-07-28T01:30:20;7.53;;;6.82;;
18066;SDS011;9158;51.528;7.192;2023-07-28T01:30:51;7.03;;;6.40;;
18066;SDS011;9158;51.528;7.192;2023-07-28T01:31:23;9.07;;;6.95;;
18066;SDS011;9158;51.528;7.192;2023-07-28T01:31:54;8.77;;;7.88;;
18066;SDS011;9158;51.528;7.192;2023-07-28T01:32:29;7.00;;;6.40;;
18066;SDS011;9158;51.528;7.192;2023-07-28T01:33:00;7.73;;;7.03;;
18066;SDS011;9158;51.528;7.192;2023-07-28T01:33:32;7.10;;;6.40;;
18066;SDS011;9158;51.528;7.192;2023-07-28T01:34:03;6.00;;;5.40;;
18066;SDS011;9158;51.528;7.192;2023-07-28T01:34:34;6.32;;;5.75;;
18066;SDS011;9158;51.528;7.192;2023-07-28T01:35:05;7.10;;;6.50;;
18066;SDS011;9158;51.528;7.192;2023-07-28T01:35:38;6.22;;;5.60;;
18066;SDS011;9158;51.528;7.192;2023-07-28T01:36:10;7.13;;;6.43;;
18066;SDS011;9158;51.528;7.192;2023-07-28T01:36:41;6.90;;;6.30;;
18066;SDS011;9158;51.528;7.192;2023-07-28T01:37:12;7.72;;;6.97;;
18066;SDS011;9158;51.528;7.192;2023-07-28T01:37:43;7.00;;;5.95;;
18066;SDS011;9158;51.528;7.192;2023-07-28T01:38:20;6.18;;;5.57;;
18066;SDS011;9158;51.528;7.192;2023-07-28T01:38:51;6.78;;;6.05;;
18066;SDS011;9158;51.528;7.192;2023-07-28T01:39:24;7.25;;;6.63;;
18066;SDS011;9158;51.528;7.192;2023-07-28T01:39:55;6.38;;;5.80;;
18066;SDS011;9158;51.528;7.192;2023-07-28T01:40:27;8.93;;;6.68;;
18066;SDS011;9158;51.528;7.192;2023-07-28T01:40:58;6.60;;;5.53;;
18066;SDS011;9158;51.528;7.192;2023-07-28T01:41:29;5.63;;;5.03;;
18066;SDS011;9158;51.528;7.192;2023-07-28T01:42:02;5.80;;;4.50;;
18066;SDS011;9158;51.528;7.192;2023-07-28T01:42:34;6.75;;;5.50;;
18066;SDS011;9158;51.528;7.192;2023-07-28T01:43:05;6.97;;;6.10;;
18066;SDS011;9158;51.528;7.192;2023-07-28T01:43:35;5.32;;;4.93;;
18066;SDS011;9158;51.528;7.192;2023-07-28T01:44:06;6.95;;;6.30;;
18066;SDS011;9158;51.528;7.192;2023-07-28T01:44:38;7.43;;;6.63;;
18066;SDS011;9158;51.528;7.192;2023-07-28T01:45:09;9.73;;;6.53;;
18066;SDS011;9158;51.528;7.192;2023-07-28T01:45:40;9.63;;;6.50;;
18066;SDS011;9158;51.528;7.192;2023-07-28T01:46:11;6.73;;;6.13;;
18066;SDS011;9158;51.528;7.192;2023-07-28T01:46:43;6.32;;;5.68;;
18066;SDS011;9158;51.528;7.192;2023-07-28T01:47:14;7.55;;;5.78;;
18066;SDS011;9158;51.528;7.192;2023-07-28T01:47:45;6.30;;;5.73;;
18066;SDS011;9158;51.528;7.192;2023-07-28T01:48:16;7.00;;;5.23;;
18066;SDS011;9158;51.528;7.192;2023-07-28T01:48:49;8.05;;;5.47;;
18066;SDS011;9158;51.528;7.192;2023-07-28T01:49:20;7.83;;;6.90;;
18066;SDS011;9158;51.528;7.192;2023-07-28T01:49:51;6.80;;;6.10;;
18066;SDS011;9158;51.528;7.192;2023-07-28T01:50:22;7.57;;;5.90;;
18066;SDS011;9158;51.528;7.192;2023-07-28T01:50:54;6.90;;;6.30;;
18066;SDS011;9158;51.528;7.192;2023-07-28T01:51:24;7.60;;;6.72;;
18066;SDS011;9158;51.528;7.192;2023-07-28T01:51:56;8.93;;;6.32;;
18066;SDS011;9158;51.528;7.192;2023-07-28T01:52:26;7.20;;;6.60;;
18066;SDS011;9158;51.528;7.192;2023-07-28T01:52:58;5.85;;;5.25;;
18066;SDS011;9158;51.528;7.192;2023-07-28T01:53:30;7.03;;;6.32;;
18066;SDS011;9158;51.528;7.192;2023-07-28T01:54:01;6.65;;;6.05;;
18066;SDS011;9158;51.528;7.192;2023-07-28T01:54:33;6.32;;;5.72;;
18066;SDS011;9158;51.528;7.192;2023-07-28T01:55:04;6.20;;;5.47;;
18066;SDS011;9158;51.528;7.192;2023-07-28T01:55:36;7.47;;;6.80;;
18066;SDS011;9158;51.528;7.192;2023-07-28T01:56:08;6.85;;;6.05;;
18066;SDS011;9158;51.528;7.192;2023-07-28T01:56:39;7.00;;;5.47;;
18066;SDS011;9158;51.528;7.192;2023-07-28T01:57:11;7.37;;;5.47;;
18066;SDS011;9158;51.528;7.192;2023-07-28T01:57:49;6.90;;;6.20;;
18066;SDS011;9158;51.528;7.192;2023-07-28T01:58:21;6.35;;;5.78;;
18066;SDS011;9158;51.528;7.192;2023-07-28T01:58:52;6.78;;;6.15;;
18066;SDS011;9158;51.528;7.192;2023-07-28T01:59:23;6.40;;;5.90;;
18066;SDS011;9158;51.528;7.192;2023-07-28T01:59:55;7.40;;;6.00;;
18066;SDS011;9158;51.528;7.192;2023-07-28T02:00:26;6.30;;;5.80;;
18066;SDS011;9158;51.528;7.192;2023-07-28T02:00:58;5.13;;;4.72;;
18066;SDS011;9158;51.528;7.192;2023-07-28T02:01:29;6.10;;;5.60;;
18066;SDS011;9158;51.528;7.192;2023-07-28T02:02:00;5.63;;;5.13;;
18066;SDS011;9158;51.528;7.192;2023-07-28T02:02:32;6.63;;;5.53;;
18066;SDS011;9158;51.528;7.192;2023-07-28T02:03:03;6.10;;;5.50;;
18066;SDS011;9158;51.528;7.192;2023-07-28T02:03:34;6.63;;;6.03;;
18066;SDS011;9158;51.528;7.192;2023-07-28T02:04:06;6.97;;;5.55;;
18066;SDS011;9158;51.528;7.192;2023-07-28T02:04:37;8.07;;;5.47;;
18066;SDS011;9158;51.528;7.192;2023-07-28T02:05:08;5.67;;;4.80;;
18066;SDS011;9158;51.528;7.192;2023-07-28T02:05:39;5.83;;;5.27;;
18066;SDS011;9158;51.528;7.192;2023-07-28T02:06:10;7.15;;;5.30;;
18066;SDS011;9158;51.528;7.192;2023-07-28T02:06:42;6.10;;;5.50;;
18066;SDS011;9158;51.528;7.192;2023-07-28T02:07:13;5.43;;;4.93;;
18066;SDS011;9158;51.528;7.192;2023-07-28T02:07:44;6.33;;;5.03;;
18066;SDS011;9158;51.528;7.192;2023-07-28T02:08:15;5.60;;;5.10;;
18066;SDS011;9158;51.528;7.192;2023-07-28T02:08:47;6.30;;;5.57;;
18066;SDS011;9158;51.528;7.192;2023-07-28T02:09:18;5.77;;;5.20;;
18066;SDS011;9158;51.528;7.192;2023-07-28T02:09:49;5.90;;;5.13;;
18066;SDS011;9158;51.528;7.192;2023-07-28T02:10:20;5.63;;;5.13;;
18066;SDS011;9158;51.528;7.192;2023-07-28T02:10:53;5.70;;;5.10;;
18066;SDS011;9158;51.528;7.192;2023-07-28T02:11:24;5.90;;;5.40;;
18066;SDS011;9158;51.528;7.192;2023-07-28T02:11:54;5.80;;;5.10;;
18066;SDS011;9158;51.528;7.192;2023-07-28T02:12:28;5.78;;;4.97;;
18066;SDS011;9158;51.528;7.192;2023-07-28T02:12:59;4.75;;;4.35;;
18066;SDS011;9158;51.528;7.192;2023-07-28T02:13:30;6.43;;;5.82;;
18066;SDS011;9158;51.528;7.192;2023-07-28T02:14:02;5.70;;;5.20;;
18066;SDS011;9158;51.528;7.192;2023-07-28T02:14:34;5.53;;;5.03;;
18066;SDS011;9158;51.528;7.192;2023-07-28T02:15:05;5.32;;;4.30;;
18066;SDS011;9158;51.528;7.192;2023-07-28T02:15:37;5.60;;;5.10;;
18066;SDS011;9158;51.528;7.192;2023-07-28T02:16:09;5.50;;;4.97;;
18066;SDS011;9158;51.528;7.192;2023-07-28T02:16:40;5.00;;;4.50;;
18066;SDS011;9158;51.528;7.192;2023-07-28T02:17:11;7.63;;;5.77;;
18066;SDS011;9158;51.528;7.192;2023-07-28T02:17:43;6.43;;;4.93;;
18066;SDS011;9158;51.528;7.192;2023-07-28T02:18:14;5.97;;;5.22;;
18066;SDS011;9158;51.528;7.192;2023-07-28T02:18:45;6.20;;;5.60;;
18066;SDS011;9158;51.528;7.192;2023-07-28T02:19:17;5.32;;;4.68;;
18066;SDS011;9158;51.528;7.192;2023-07-28T02:19:48;5.50;;;5.00;;
18066;SDS011;9158;51.528;7.192;2023-07-28T02:20:19;6.10;;;5.50;;
18066;SDS011;9158;51.528;7.192;2023-07-28T02:20:50;5.32;;;4.80;;
18066;SDS011;9158;51.528;7.192;2023-07-28T02:21:22;5.10;;;4.70;;
18066;SDS011;9158;51.528;7.192;2023-07-28T02:21:53;8.25;;;5.63;;
18066;SDS011;9158;51.528;7.192;2023-07-28T02:22:24;5.80;;;5.30;;
18066;SDS011;9158;51.528;7.192;2023-07-28T02:22:55;5.80;;;5.30;;
18066;SDS011;9158;51.528;7.192;2023-07-28T02:23:27;5.68;;;4.93;;
18066;SDS011;9158;51.528;7.192;2023-07-28T02:23:58;6.27;;;5.67;;
18066;SDS011;9158;51.528;7.192;2023-07-28T02:24:29;5.68;;;5.18;;
18066;SDS011;9158;51.528;7.192;2023-07-28T02:25:00;5.60;;;5.10;;
18066;SDS011;9158;51.528;7.192;2023-07-28T02:25:34;6.47;;;4.72;;
18066;SDS011;9158;51.528;7.192;2023-07-28T02:26:05;5.13;;;4.63;;
18066;SDS011;9158;51.528;7.192;2023-07-28T02:26:36;5.93;;;5.43;;
18066;SDS011;9158;51.528;7.192;2023-07-28T02:27:07;5.17;;;4.67;;
18066;SDS011;9158;51.528;7.192;2023-07-28T02:27:40;5.63;;;5.00;;
18066;SDS011;9158;51.528;7.192;2023-07-28T02:28:11;5.47;;;5.03;;
18066;SDS011;9158;51.528;7.192;2023-07-28T02:28:42;6.43;;;5.83;;
18066;SDS011;9158;51.528;7.192;2023-07-28T02:29:13;5.87;;;5.37;;
18066;SDS011;9158;51.528;7.192;2023-07-28T02:29:45;5.50;;;5.00;;
18066;SDS011;9158;51.528;7.192;2023-07-28T02:30:16;6.77;;;6.17;;
18066;SDS011;9158;51.528;7.192;2023-07-28T02:30:47;5.40;;;4.90;;
18066;SDS011;9158;51.528;7.192;2023-07-28T02:31:18;6.43;;;5.80;;
18066;SDS011;9158;51.528;7.192;2023-07-28T02:31:50;6.10;;;5.35;;
18066;SDS011;9158;51.528;7.192;2023-07-28T02:32:21;7.07;;;6.47;;
18066;SDS011;9158;51.528;7.192;2023-07-28T02:32:52;7.82;;;5.55;;
18066;SDS011;9158;51.528;7.192;2023-07-28T02:33:23;6.87;;;6.17;;
18066;SDS011;9158;51.528;7.192;2023-07-28T02:33:55;6.97;;;5.68;;
18066;SDS011;9158;51.528;7.192;2023-07-28T02:34:26;5.72;;;5.22;;
18066;SDS011;9158;51.528;7.192;2023-07-28T02:34:56;7.70;;;5.90;;
18066;SDS011;9158;51.528;7.192;2023-07-28T02:35:28;5.97;;;5.40;;
18066;SDS011;9158;51.528;7.192;2023-07-28T02:36:02;6.43;;;5.82;;
18066;SDS011;9158;51.528;7.192;2023-07-28T02:36:33;5.78;;;5.18;;
18066;SDS011;9158;51.528;7.192;2023-07-28T02:37:04;6.37;;;5.27;;
18066;SDS011;9158;51.528;7.192;2023-07-28T02:37:35;6.95;;;5.60;;
18066;SDS011;9158;51.528;7.192;2023-07-28T02:38:07;6.43;;;5.30;;
18066;SDS011;9158;51.528;7.192;2023-07-28T02:38:38;6.67;;;5.60;;
18066;SDS011;9158;51.528;7.192;2023-07-28T02:39:09;6.20;;;5.70;;
18066;SDS011;9158;51.528;7.192;2023-07-28T02:39:40;5.53;;;5.03;;
18066;SDS011;9158;51.528;7.192;2023-07-28T02:40:12;5.90;;;5.30;;
18066;SDS011;9158;51.528;7.192;2023-07-28T02:40:43;7.60;;;5.53;;
18066;SDS011;9158;51.528;7.192;2023-07-28T02:41:14;5.67;;;5.07;;
18066;SDS011;9158;51.528;7.192;2023-07-28T02:41:46;5.75;;;5.25;;
18066;SDS011;9158;51.528;7.192;2023-07-28T02:42:17;6.22;;;5.65;;
18066;SDS011;9158;51.528;7.192;2023-07-28T02:42:49;6.47;;;5.80;;
18066;SDS011;9158;51.528;7.192;2023-07-28T02:43:23;6.30;;;5.50;;
18066;SDS011;9158;51.528;7.192;2023-07-28T02:43:54;5.30;;;4.80;;
18066;SDS011;9158;51.528;7.192;2023-07-28T02:44:25;6.45;;;5.85;;
18066;SDS011;9158;51.528;7.192;2023-07-28T02:44:56;4.97;;;4.40;;
18066;SDS011;9158;51.528;7.192;2023-07-28T02:45:28;6.35;;;5.75;;
18066;SDS011;9158;51.528;7.192;2023-07-28T02:46:00;6.07;;;5.10;;
18066;SDS011;9158;51.528;7.192;2023-07-28T02:46:31;5.80;;;5.22;;
18066;SDS011;9158;51.528;7.192;2023-07-28T02:47:02;6.00;;;5.50;;
18066;SDS011;9158;51.528;7.192;2023-07-28T02:47:34;5.97;;;5.00;;
18066;SDS011;9158;51.528;7.192;2023-07-28T02:48:05;5.67;;;5.07;;
18066;SDS011;9158;51.528;7.192;2023-07-28T02:48:36;5.00;;;4.60;;
18066;SDS011;9158;51.528;7.192;2023-07-28T02:49:07;6.20;;;5.17;;
18066;SDS011;9158;51.528;7.192;2023-07-28T02:49:40;7.10;;;5.60;;
18066;SDS011;9158;51.528;7.192;2023-07-28T02:50:11;5.07;;;4.22;;
18066;SDS011;9158;51.528;7.192;2023-07-28T02:50:45;6.00;;;5.40;;
18066;SDS011;9158;51.528;7.192;2023-07-28T02:51:17;5.97;;;5.07;;
18066;SDS011;9158;51.528;7.192;2023-07-28T02:51:48;5.90;;;5.17;;
18066;SDS011;9158;51.528;7.192;2023-07-28T02:52:19;9.37;;;5.30;;
18066;SDS011;9158;51.528;7.192;2023-07-28T02:52:50;5.85;;;5.25;;
18066;SDS011;9158;51.528;7.192;2023-07-28T02:53:22;5.63;;;5.13;;
18066;SDS011;9158;51.528;7.192;2023-07-28T02:53:53;6.33;;;4.97;;
18066;SDS011;9158;51.528;7.192;2023-07-28T02:54:24;5.37;;;4.80;;
18066;SDS011;9158;51.528;7.192;2023-07-28T02:54:56;4.78;;;4.28;;
18066;SDS011;9158;51.528;7.192;2023-07-28T02:55:28;5.75;;;4.90;;
18066;SDS011;9158;51.528;7.192;2023-07-28T02:55:59;6.03;;;5.50;;
18066;SDS011;9158;51.528;7.192;2023-07-28T02:56:29;6.30;;;5.40;;
18066;SDS011;9158;51.528;7.192;2023-07-28T02:57:05;8.27;;;5.40;;
18066;SDS011;9158;51.528;7.192;2023-07-28T02:57:37;5.72;;;5.13;;
18066;SDS011;9158;51.528;7.192;2023-07-28T02:58:10;6.25;;;4.97;;
18066;SDS011;9158;51.528;7.192;2023-07-28T02:58:41;5.47;;;4.97;;
18066;SDS011;9158;51.528;7.192;2023-07-28T02:59:13;6.10;;;4.75;;
18066;SDS011;9158;51.528;7.192;2023-07-28T02:59:44;5.35;;;4.85;;
18066;SDS011;9158;51.528;7.192;2023-07-28T03:00:15;5.93;;;5.05;;
18066;SDS011;9158;51.528;7.192;2023-07-28T03:00:47;5.65;;;5.15;;
18066;SDS011;9158;51.528;7.192;2023-07-28T03:01:24;5.55;;;5.05;;
18066;SDS011;9158;51.528;7.192;2023-07-28T03:01:55;6.67;;;5.97;;
18066;SDS011;9158;51.528;7.192;2023-07-28T03:02:27;5.90;;;5.30;;
18066;SDS011;9158;51.528;7.192;2023-07-28T03:03:02;5.38;;;4.88;;
18066;SDS011;9158;51.528;7.192;2023-07-28T03:03:33;5.20;;;4.60;;
18066;SDS011;9158;51.528;7.192;2023-07-28T03:04:03;7.33;;;5.23;;
18066;SDS011;9158;51.528;7.192;2023-07-28T03:04:48;6.35;;;5.75;;
18066;SDS011;9158;51.528;7.192;2023-07-28T03:05:20;5.63;;;4.95;;
18066;SDS011;9158;51.528;7.192;2023-07-28T03:06:09;5.68;;;4.35;;
18066;SDS011;9158;51.528;7.192;2023-07-28T03:06:41;5.50;;;5.00;;
18066;SDS011;9158;51.528;7.192;2023-07-28T03:07:12;5.07;;;4.67;;
18066;SDS011;9158;51.528;7.192;2023-07-28T03:07:47;5.20;;;4.70;;
18066;SDS011;9158;51.528;7.192;2023-07-28T03:08:20;6.63;;;5.40;;
18066;SDS011;9158;51.528;7.192;2023-07-28T03:08:51;5.85;;;5.30;;
18066;SDS011;9158;51.528;7.192;2023-07-28T03:09:43;5.78;;;5.28;;
18066;SDS011;9158;51.528;7.192;2023-07-28T03:10:15;5.53;;;4.95;;
18066;SDS011;9158;51.528;7.192;2023-07-28T03:10:47;5.38;;;4.88;;
18066;SDS011;9158;51.528;7.192;2023-07-28T03:11:18;7.05;;;4.43;;
18066;SDS011;9158;51.528;7.192;2023-07-28T03:11:49;5.20;;;4.80;;
18066;SDS011;9158;51.528;7.192;2023-07-28T03:12:21;5.40;;;4.35;;
18066;SDS011;9158;51.528;7.192;2023-07-28T03:12:53;5.82;;;5.30;;
18066;SDS011;9158;51.528;7.192;2023-07-28T03:13:25;5.57;;;5.07;;
18066;SDS011;9158;51.528;7.192;2023-07-28T03:13:56;5.63;;;5.13;;
18066;SDS011;9158;51.528;7.192;2023-07-28T03:14:27;5.80;;;5.20;;
18066;SDS011;9158;51.528;7.192;2023-07-28T03:14:59;5.85;;;5.30;;
18066;SDS011;9158;51.528;7.192;2023-07-28T03:15:30;6.00;;;5.40;;
18066;SDS011;9158;51.528;7.192;2023-07-28T03:16:01;5.25;;;4.70;;
18066;SDS011;9158;51.528;7.192;2023-07-28T03:16:32;7.43;;;5.35;;